Time;durP1;ratioP1;P1;durP2;ratioP2;P2;SDS_P1;SDS_P2;PMS_P1;PMS_P2;Temp;Humidity;BMP_temperature;BMP_pressure;BME280_temperature;BME280_humidity;BME280_pressure;Samples;Min_cycle;Max_cycle;Signal;HPM_P1;HPM_P2
2024/01/09 00:02:13;;;;;;;21.60;9.13;;;;;;;;;;6160899;23;20153;-93
2024/01/09 00:05:20;;;;;;;22.60;8.87;;;;;;;;;;6142576;23;20181;-91
2024/01/09 00:08:26;;;;;;;26.27;9.43;;;;;;;;;;6143147;23;20242;-92
2024/01/09 00:11:32;;;;;;;22.50;8.57;;;;;;;;;;6143444;23;20335;-91
2024/01/09 00:14:39;;;;;;;20.53;8.43;;;;;;;;;;6142317;23;20172;-91
2024/01/09 00:17:45;;;;;;;21.77;8.90;;;;;;;;;;6143209;23;20197;-92
2024/01/09 00:20:54;;;;;;;20.77;8.03;;;;;;;;;;6159529;23;20503;-92
2024/01/09 00:23:59;;;;;;;22.07;8.87;;;;;;;;;;6144501;23;20192;-93
2024/01/09 00:27:05;;;;;;;22.40;8.63;;;;;;;;;;6142604;23;20248;-92
2024/01/09 00:30:19;;;;;;;23.23;9.67;;;;;;;;;;6146277;23;20156;-92
2024/01/09 00:33:24;;;;;;;21.93;8.27;;;;;;;;;;6146934;23;20177;-92
2024/01/09 00:36:32;;;;;;;20.63;8.20;;;;;;;;;;6146573;23;20241;-92
2024/01/09 00:39:39;;;;;;;18.97;7.80;;;;;;;;;;6144605;23;20168;-91
2024/01/09 00:42:45;;;;;;;20.70;8.60;;;;;;;;;;6146881;23;20169;-90
2024/01/09 00:45:53;;;;;;;22.10;6.97;;;;;;;;;;6161855;23;20198;-91
2024/01/09 00:49:02;;;;;;;25.13;8.03;;;;;;;;;;6146660;23;20173;-93
2024/01/09 00:52:09;;;;;;;24.63;7.80;;;;;;;;;;6144637;23;20165;-88
2024/01/09 00:55:17;;;;;;;21.37;7.93;;;;;;;;;;6145064;23;20167;-91
2024/01/09 00:58:24;;;;;;;22.47;8.13;;;;;;;;;;6145776;23;20176;-93
2024/01/09 01:01:30;;;;;;;24.00;8.90;;;;;;;;;;6146048;23;20235;-92
2024/01/09 01:04:39;;;;;;;16.97;7.27;;;;;;;;;;6143751;23;20533;-94
2024/01/09 01:07:46;;;;;;;21.17;7.63;;;;;;;;;;6141293;23;20213;-90
2024/01/09 01:10:51;;;;;;;26.73;8.77;;;;;;;;;;6139171;23;20173;-91
2024/01/09 01:13:56;;;;;;;23.50;8.17;;;;;;;;;;6139905;23;20169;-91
2024/01/09 01:17:01;;;;;;;19.47;7.80;;;;;;;;;;6140643;23;20188;-92
2024/01/09 01:20:07;;;;;;;20.20;7.87;;;;;;;;;;6142158;23;20165;-92
2024/01/09 01:23:14;;;;;;;26.23;9.03;;;;;;;;;;6141939;23;20169;-91
2024/01/09 01:26:20;;;;;;;20.97;8.10;;;;;;;;;;6142241;23;20591;-93
2024/01/09 01:29:25;;;;;;;20.47;7.83;;;;;;;;;;6144769;23;20161;-93
2024/01/09 01:35:53;;;;;;;24.73;9.03;;;;;;;;;;6078656;23;20241;-92
2024/01/09 01:39:00;;;;;;;17.43;7.43;;;;;;;;;;6142831;23;20266;-91
2024/01/09 01:42:05;;;;;;;21.10;8.57;;;;;;;;;;6142259;23;20169;-91
2024/01/09 01:45:16;;;;;;;22.93;8.77;;;;;;;;;;6144231;23;20169;-92
2024/01/09 01:48:25;;;;;;;25.13;8.20;;;;;;;;;;6143545;23;20173;-93
2024/01/09 01:51:30;;;;;;;22.67;8.07;;;;;;;;;;6144159;23;20168;-91
2024/01/09 01:54:37;;;;;;;25.20;9.23;;;;;;;;;;6143567;23;20617;-92
2024/01/09 01:57:44;;;;;;;20.23;8.50;;;;;;;;;;6142278;23;20250;-93
2024/01/09 02:00:50;;;;;;;21.07;8.17;;;;;;;;;;6142581;23;20150;-92
2024/01/09 02:03:56;;;;;;;18.33;7.30;;;;;;;;;;6145488;23;20164;-92
2024/01/09 02:07:02;;;;;;;17.03;6.93;;;;;;;;;;6146154;23;20181;-92
2024/01/09 02:10:10;;;;;;;25.70;9.10;;;;;;;;;;6144258;23;20178;-92
2024/01/09 02:13:16;;;;;;;23.20;8.10;;;;;;;;;;6143527;23;20206;-91
2024/01/09 02:16:21;;;;;;;24.33;8.47;;;;;;;;;;6143054;23;20161;-93
2024/01/09 02:19:27;;;;;;;21.10;8.20;;;;;;;;;;6142670;23;20169;-92
2024/01/09 02:22:32;;;;;;;17.27;6.80;;;;;;;;;;6097810;23;20229;-92
2024/01/09 02:25:39;;;;;;;26.30;8.97;;;;;;;;;;6111930;23;20217;-93
2024/01/09 02:28:48;;;;;;;24.70;7.43;;;;;;;;;;6110612;23;20165;-90
2024/01/09 02:31:55;;;;;;;24.27;9.10;;;;;;;;;;6111403;23;20173;-92
2024/01/09 02:35:00;;;;;;;22.37;8.27;;;;;;;;;;6112213;23;20178;-94
2024/01/09 02:38:06;;;;;;;25.80;8.40;;;;;;;;;;6111930;23;20193;-91
2024/01/09 02:41:11;;;;;;;26.03;9.47;;;;;;;;;;6111135;23;20170;-92
2024/01/09 02:44:19;;;;;;;19.60;8.33;;;;;;;;;;6111487;23;20174;-92
2024/01/09 02:47:26;;;;;;;22.93;8.67;;;;;;;;;;6112253;23;20222;-93
2024/01/09 02:50:32;;;;;;;24.40;8.37;;;;;;;;;;6130327;23;20214;-91
2024/01/09 02:53:37;;;;;;;22.73;8.70;;;;;;;;;;6114174;23;20215;-93
2024/01/09 02:56:43;;;;;;;22.33;8.07;;;;;;;;;;6111293;23;20170;-91
2024/01/09 02:59:48;;;;;;;22.00;7.77;;;;;;;;;;6112335;23;20169;-94
2024/01/09 03:02:54;;;;;;;19.50;7.97;;;;;;;;;;6113106;23;20177;-94
2024/01/09 03:05:59;;;;;;;23.97;8.77;;;;;;;;;;6112244;23;20170;-92
2024/01/09 03:09:05;;;;;;;19.47;8.83;;;;;;;;;;6113813;23;20202;-94
2024/01/09 03:12:11;;;;;;;28.03;8.37;;;;;;;;;;6113331;23;20165;-92
2024/01/09 03:15:16;;;;;;;22.53;8.27;;;;;;;;;;6112575;23;20167;-92
2024/01/09 03:18:23;;;;;;;24.53;8.30;;;;;;;;;;6113210;23;20181;-92
2024/01/09 03:21:29;;;;;;;26.10;9.07;;;;;;;;;;6114215;23;20165;-92
2024/01/09 03:24:34;;;;;;;19.17;7.73;;;;;;;;;;6117764;23;20268;-92
2024/01/09 03:27:39;;;;;;;24.20;8.43;;;;;;;;;;6162032;23;20621;-91
2024/01/09 03:30:45;;;;;;;25.17;8.93;;;;;;;;;;6143271;23;20227;-92
2024/01/09 03:33:52;;;;;;;23.37;8.63;;;;;;;;;;6142927;23;20190;-91
2024/01/09 03:36:57;;;;;;;23.30;8.60;;;;;;;;;;6144208;23;20233;-92
2024/01/09 03:40:02;;;;;;;27.13;8.67;;;;;;;;;;6145039;23;20168;-91
2024/01/09 03:43:07;;;;;;;26.77;9.17;;;;;;;;;;6144803;23;20719;-93
2024/01/09 03:46:13;;;;;;;21.63;8.33;;;;;;;;;;6142536;23;20173;-93
2024/01/09 03:49:19;;;;;;;24.57;9.53;;;;;;;;;;6142786;23;20153;-93
2024/01/09 03:52:27;;;;;;;26.37;9.47;;;;;;;;;;6143965;23;20206;-93
2024/01/09 03:55:32;;;;;;;22.80;8.33;;;;;;;;;;6144115;23;20168;-91
2024/01/09 03:58:37;;;;;;;24.67;8.53;;;;;;;;;;6143297;23;20193;-92
2024/01/09 04:01:43;;;;;;;28.03;9.10;;;;;;;;;;6141521;23;20221;-93
2024/01/09 04:04:50;;;;;;;25.13;8.47;;;;;;;;;;6158920;23;20197;-92
2024/01/09 04:07:55;;;;;;;25.60;9.23;;;;;;;;;;6143232;23;20265;-91
2024/01/09 04:11:01;;;;;;;23.00;8.93;;;;;;;;;;6144110;23;20197;-93
2024/01/09 04:14:06;;;;;;;21.17;8.23;;;;;;;;;;6145411;23;20203;-91
2024/01/09 04:17:12;;;;;;;26.90;9.73;;;;;;;;;;6161716;23;20170;-92
2024/01/09 04:20:26;;;;;;;31.67;8.97;;;;;;;;;;6146002;23;20153;-92
2024/01/09 04:23:32;;;;;;;24.10;9.77;;;;;;;;;;6163449;23;20164;-91
2024/01/09 04:26:40;;;;;;;23.53;7.13;;;;;;;;;;6147320;23;20210;-94
2024/01/09 04:29:48;;;;;;;25.03;9.20;;;;;;;;;;6146305;23;20225;-93
2024/01/09 04:32:54;;;;;;;23.17;8.60;;;;;;;;;;6143850;23;20156;-92
2024/01/09 04:36:01;;;;;;;29.30;9.70;;;;;;;;;;6143711;23;20169;-93
2024/01/09 04:39:07;;;;;;;24.17;9.37;;;;;;;;;;6141066;23;20204;-92
2024/01/09 04:42:12;;;;;;;25.30;9.30;;;;;;;;;;6142657;23;20168;-93
2024/01/09 04:45:18;;;;;;;28.00;9.20;;;;;;;;;;6145505;23;20168;-93
2024/01/09 04:48:24;;;;;;;25.80;9.13;;;;;;;;;;6146022;23;20216;-92
2024/01/09 04:54:27;;;;;;;25.30;8.73;;;;;;;;;;6127209;23;20202;-92
2024/01/09 04:57:33;;;;;;;25.63;8.83;;;;;;;;;;6143694;23;20497;-92
2024/01/09 05:00:39;;;;;;;30.17;10.03;;;;;;;;;;6143619;23;20181;-90
2024/01/09 05:03:47;;;;;;;22.37;8.83;;;;;;;;;;6146220;23;20160;-93
2024/01/09 05:06:53;;;;;;;24.80;8.97;;;;;;;;;;6144325;23;20165;-91
2024/01/09 05:10:00;;;;;;;27.93;9.60;;;;;;;;;;6143160;23;20173;-92
2024/01/09 05:13:06;;;;;;;24.57;9.43;;;;;;;;;;6144587;23;20181;-92
2024/01/09 05:16:11;;;;;;;22.57;9.13;;;;;;;;;;6145125;23;20169;-92
2024/01/09 05:19:17;;;;;;;24.70;8.73;;;;;;;;;;6145870;23;20201;-93
2024/01/09 05:22:22;;;;;;;26.37;9.17;;;;;;;;;;6143753;23;20153;-93
2024/01/09 05:25:29;;;;;;;32.43;9.67;;;;;;;;;;6144788;23;20153;-96
2024/01/09 23:05:58;;;;;;;35.23;12.30;;;;;;;;;;6149973;23;20189;-91
2024/01/09 23:09:12;;;;;;;45.10;15.33;;;;;;;;;;6148553;23;20219;-92
2024/01/09 23:15:40;;;;;;;33.13;12.40;;;;;;;;;;6147672;23;20169;-92
2024/01/09 23:18:55;;;;;;;31.40;11.77;;;;;;;;;;6147881;23;20196;-92
2024/01/09 23:22:04;;;;;;;31.23;11.93;;;;;;;;;;6147546;23;20161;-92
2024/01/09 23:31:56;;;;;;;31.13;11.83;;;;;;;;;;6114602;23;20242;-92
2024/01/09 23:38:22;;;;;;;35.93;12.13;;;;;;;;;;6149069;23;20237;-93
2024/01/09 23:41:28;;;;;;;33.57;12.93;;;;;;;;;;6131443;23;20217;-92
2024/01/09 23:44:34;;;;;;;32.03;12.53;;;;;;;;;;6134079;23;20169;-92
2024/01/09 23:47:54;;;;;;;31.67;11.83;;;;;;;;;;6132952;23;20188;-92
2024/01/09 23:54:31;;;;;;;38.40;12.63;;;;;;;;;;6150527;23;20268;-93
2024/01/09 23:57:37;;;;;;;33.23;11.87;;;;;;;;;;6133984;23;20245;-91
